createdAt,value
2018-02-04T00:09:25.612Z,0.66
2018-02-04T00:11:51.418Z,0.23
2018-02-04T00:14:17.214Z,0.14
2018-02-04T00:16:43.005Z,0.09
2018-02-04T00:19:08.785Z,0.42
2018-02-04T00:21:34.594Z,1.12
2018-02-04T00:24:00.376Z,0.64
2018-02-04T00:26:26.164Z,1.39
2018-02-04T00:28:51.991Z,0.92
2018-02-04T00:31:17.790Z,1.26
2018-02-04T00:33:43.641Z,1.57
2018-02-04T00:36:09.446Z,1.86
2018-02-04T00:38:35.262Z,1.45
2018-02-04T00:41:01.112Z,0.35
2018-02-04T00:43:26.889Z,0.00
2018-02-04T00:45:52.682Z,0.01
2018-02-04T00:48:18.473Z,-0.10
2018-02-04T00:50:44.246Z,-0.16
2018-02-04T00:53:10.166Z,-0.07
2018-02-04T00:55:35.949Z,-0.35
2018-02-04T00:58:01.738Z,-0.43
2018-02-04T01:00:27.523Z,-0.55
2018-02-04T01:02:53.322Z,-0.47
2018-02-04T01:05:19.118Z,-0.42
2018-02-04T01:07:44.922Z,-0.40
2018-02-04T01:10:10.710Z,-0.56
2018-02-04T01:12:36.483Z,-0.33
2018-02-04T01:15:02.314Z,-0.45
2018-02-04T01:17:28.098Z,-0.28
2018-02-04T01:19:53.906Z,-0.45
2018-02-04T01:22:19.690Z,-0.57
2018-02-04T01:24:45.466Z,-0.64
2018-02-04T01:27:11.294Z,-0.10
2018-02-04T01:29:37.081Z,-0.53
2018-02-04T01:32:02.874Z,-0.31
2018-02-04T01:34:28.690Z,-0.30
2018-02-04T01:36:54.488Z,-0.45
2018-02-04T01:39:20.297Z,-0.50
2018-02-04T01:41:46.072Z,-0.61
2018-02-04T01:44:11.853Z,-0.74
2018-02-04T01:46:37.674Z,-0.62
2018-02-04T01:49:03.470Z,-0.53
2018-02-04T01:51:29.263Z,-0.65
2018-02-04T01:53:55.059Z,-0.79
2018-02-04T01:56:20.839Z,-0.85
2018-02-04T01:58:46.625Z,-0.74
2018-02-04T02:01:12.410Z,-0.56
2018-02-04T02:03:38.313Z,-0.58
2018-02-04T02:06:04.097Z,-0.45
2018-02-04T02:08:29.887Z,-0.49
2018-02-04T02:10:55.661Z,-0.39
2018-02-04T02:13:21.432Z,-0.35
2018-02-04T02:15:47.239Z,-0.51
2018-02-04T02:18:13.034Z,-0.48
2018-02-04T02:20:38.818Z,-0.64
2018-02-04T02:23:04.615Z,-0.38
2018-02-04T02:25:30.395Z,-0.64
2018-02-04T02:27:56.204Z,-0.61
2018-02-04T02:30:21.996Z,-0.47
2018-02-04T02:32:47.778Z,-0.49
2018-02-04T02:35:13.571Z,-0.41
2018-02-04T02:37:39.346Z,-0.43
2018-02-04T02:40:05.166Z,-0.45
2018-02-04T02:42:30.991Z,-0.24
2018-02-04T02:44:56.790Z,-0.30
2018-02-04T02:47:22.618Z,-0.14
2018-02-04T02:49:48.433Z,0.21
2018-02-04T02:52:14.507Z,-0.07
2018-02-04T02:54:40.314Z,-0.17
2018-02-04T02:57:06.118Z,0.10
2018-02-04T02:59:31.906Z,0.35
2018-02-04T03:01:57.701Z,0.51
2018-02-04T03:04:23.521Z,0.33
2018-02-04T03:06:49.350Z,0.04
2018-02-04T03:09:15.146Z,0.11
2018-02-04T03:11:40.943Z,-0.09
2018-02-04T03:14:06.731Z,-0.22
2018-02-04T03:16:32.522Z,-0.30
2018-02-04T03:18:58.314Z,-0.39
2018-02-04T03:21:24.093Z,-0.17
2018-02-04T03:23:49.895Z,-0.19
2018-02-04T03:26:15.689Z,-0.21
2018-02-04T03:28:41.475Z,-0.25
2018-02-04T03:31:07.283Z,-0.19
2018-02-04T03:33:34.749Z,-0.25
2018-02-04T03:36:00.546Z,-0.31
2018-02-04T03:38:29.306Z,-0.27
2018-02-04T03:40:55.090Z,-0.18
2018-02-04T03:43:20.865Z,-0.18
2018-02-04T03:45:46.671Z,-0.23
2018-02-04T03:48:12.463Z,-0.18
2018-02-04T03:50:38.245Z,-0.12
2018-02-04T03:53:04.042Z,-0.17
2018-02-04T03:55:29.841Z,-0.10
2018-02-04T03:57:55.652Z,-0.05
2018-02-04T04:00:21.430Z,-0.11
2018-02-04T04:02:47.243Z,-0.15
2018-02-04T04:05:13.026Z,-0.19
2018-02-04T04:07:38.823Z,-0.11
2018-02-04T04:10:04.718Z,-0.18
2018-02-04T04:12:30.783Z,-0.17
2018-02-04T04:14:56.582Z,-0.19
2018-02-04T04:17:22.368Z,-0.02
2018-02-04T04:19:48.159Z,0.01
2018-02-04T04:22:13.962Z,-0.09
2018-02-04T04:24:39.739Z,-0.05
2018-02-04T04:27:05.538Z,0.03
2018-02-04T04:29:31.315Z,-0.03
2018-02-04T04:31:57.091Z,-0.12
2018-02-04T04:34:22.911Z,-0.05
2018-02-04T04:36:48.736Z,-0.11
2018-02-04T04:39:14.519Z,-0.06
2018-02-04T04:41:40.306Z,-0.04
2018-02-04T04:44:06.093Z,-0.02
2018-02-04T04:46:31.899Z,0.04
2018-02-04T04:48:57.687Z,0.08
2018-02-04T04:51:23.486Z,0.02
2018-02-04T04:53:49.284Z,-0.02
2018-02-04T04:56:15.114Z,-0.07
2018-02-04T04:58:40.928Z,0.06
2018-02-04T05:01:06.869Z,0.03
2018-02-04T05:03:32.685Z,0.07
2018-02-04T05:05:58.486Z,0.03
2018-02-04T05:08:24.281Z,-0.03
2018-02-04T05:10:50.070Z,0.05
2018-02-04T05:13:15.880Z,0.04
2018-02-04T05:15:41.667Z,0.03
2018-02-04T05:18:07.451Z,0.07
2018-02-04T05:20:33.245Z,-0.04
2018-02-04T05:22:59.071Z,-0.07
2018-02-04T05:25:24.906Z,-0.12
2018-02-04T05:27:50.686Z,0.08
2018-02-04T05:30:17.154Z,0.05
2018-02-04T05:32:42.950Z,-0.04
2018-02-04T05:35:08.726Z,0.03
2018-02-04T05:37:34.505Z,-0.04
2018-02-04T05:40:00.294Z,-0.03
2018-02-04T05:42:26.135Z,0.07
2018-02-04T05:44:51.920Z,0.10
2018-02-04T05:47:17.768Z,0.11
2018-02-04T05:49:45.590Z,-0.04
2018-02-04T05:52:11.426Z,-0.13
2018-02-04T05:54:37.264Z,-0.14
2018-02-04T05:57:03.067Z,-0.19
2018-02-04T05:59:28.882Z,-0.06
2018-02-04T06:01:54.665Z,-0.08
2018-02-04T06:04:20.448Z,-0.05
2018-02-04T06:06:46.255Z,-0.15
2018-02-04T06:09:12.044Z,-0.26
2018-02-04T06:11:37.845Z,-0.12
2018-02-04T06:14:03.651Z,-0.16
2018-02-04T06:16:29.470Z,-0.22
2018-02-04T06:18:55.279Z,-0.10
2018-02-04T06:21:21.082Z,-0.40
2018-02-04T06:23:46.971Z,-0.42
2018-02-04T06:26:12.773Z,-0.40
2018-02-04T06:28:38.565Z,-0.51
2018-02-04T06:31:04.348Z,-0.46
2018-02-04T06:33:30.165Z,-0.45
2018-02-04T06:35:55.950Z,-0.46
2018-02-04T06:38:21.754Z,-0.54
2018-02-04T06:40:47.558Z,-0.50
2018-02-04T06:43:13.342Z,-0.38
2018-02-04T06:45:39.144Z,-0.40
2018-02-04T06:48:04.997Z,-0.46
2018-02-04T06:50:30.746Z,-0.52
2018-02-04T06:52:56.540Z,-0.52
2018-02-04T06:55:22.334Z,-0.62
2018-02-04T06:57:48.149Z,-0.58
2018-02-04T07:00:13.954Z,-0.65
2018-02-04T07:02:39.742Z,-0.51
2018-02-04T07:05:05.587Z,-0.47
2018-02-04T07:07:31.374Z,-0.48
2018-02-04T07:09:57.194Z,-0.50
2018-02-04T07:12:22.990Z,-0.39
2018-02-04T07:14:48.767Z,-0.53
2018-02-04T07:17:14.547Z,-0.40
2018-02-04T07:19:40.360Z,-0.35
2018-02-04T07:22:06.202Z,-0.25
2018-02-04T07:24:31.980Z,-0.17
2018-02-04T07:26:57.754Z,-0.30
2018-02-04T07:29:23.566Z,-0.32
2018-02-04T07:31:49.373Z,-0.30
2018-02-04T07:34:15.160Z,-0.23
2018-02-04T07:36:40.953Z,-0.19
2018-02-04T07:39:06.736Z,-0.16
2018-02-04T07:41:32.528Z,-0.12
2018-02-04T07:43:58.714Z,-0.10
2018-02-04T07:46:24.503Z,-0.07
2018-02-04T07:48:50.310Z,-0.05
2018-02-04T07:51:16.471Z,0.05
2018-02-04T07:53:42.277Z,0.06
2018-02-04T07:56:08.069Z,0.00
2018-02-04T07:58:33.854Z,-0.01
2018-02-04T08:00:59.638Z,0.05
2018-02-04T08:03:25.451Z,0.06
2018-02-04T08:05:51.251Z,0.13
2018-02-04T08:08:17.065Z,0.32
2018-02-04T08:10:42.869Z,0.18
2018-02-04T08:13:08.681Z,0.18
2018-02-04T08:15:34.495Z,0.13
2018-02-04T08:18:00.318Z,0.24
2018-02-04T08:20:26.126Z,0.31
2018-02-04T08:22:51.923Z,0.32
2018-02-04T08:25:17.714Z,0.40
2018-02-04T08:27:43.526Z,0.44
2018-02-04T08:30:09.402Z,0.31
2018-02-04T08:32:42.273Z,0.44
2018-02-04T08:35:08.074Z,0.58
2018-02-04T08:37:33.890Z,0.40
2018-02-04T08:39:59.807Z,0.39
2018-02-04T08:42:25.628Z,0.42
2018-02-04T08:44:51.414Z,0.41
2018-02-04T08:47:17.209Z,0.48
2018-02-04T08:49:43.002Z,0.58
2018-02-04T08:52:08.802Z,0.59
2018-02-04T08:54:34.595Z,0.62
2018-02-04T08:57:00.378Z,0.54
2018-02-04T08:59:26.163Z,0.59
2018-02-04T09:01:51.978Z,0.75
2018-02-04T09:04:18.194Z,0.83
2018-02-04T09:06:43.974Z,0.86
2018-02-04T09:09:09.840Z,0.73
2018-02-04T09:11:35.639Z,0.62
2018-02-04T09:14:01.435Z,0.65
2018-02-04T09:16:27.250Z,0.81
2018-02-04T09:18:53.043Z,0.69
2018-02-04T09:21:18.856Z,0.72
2018-02-04T09:23:44.666Z,0.76
2018-02-04T09:26:10.485Z,0.74
2018-02-04T09:28:36.299Z,0.79
2018-02-04T09:31:02.090Z,0.86
2018-02-04T09:33:27.908Z,0.72
2018-02-04T09:35:53.692Z,0.77
2018-02-04T09:38:19.476Z,0.82
2018-02-04T09:40:45.773Z,0.73
2018-02-04T09:43:11.550Z,0.75
2018-02-04T09:45:37.333Z,0.81
2018-02-04T09:48:03.159Z,0.86
2018-02-04T09:50:28.958Z,0.85
2018-02-04T09:52:55.064Z,0.78
2018-02-04T09:55:20.851Z,0.73
2018-02-04T09:57:46.646Z,0.60
2018-02-04T10:00:12.438Z,0.67
2018-02-04T10:02:38.226Z,0.61
2018-02-04T10:05:04.373Z,0.54
2018-02-04T10:07:30.170Z,0.68
2018-02-04T10:09:55.978Z,0.64
2018-02-04T10:12:21.761Z,0.57
2018-02-04T10:14:47.550Z,0.71
2018-02-04T10:17:13.668Z,0.62
2018-02-04T10:19:39.577Z,0.69
2018-02-04T10:22:05.372Z,0.83
2018-02-04T10:24:31.159Z,0.63
2018-02-04T10:26:56.939Z,0.53
2018-02-04T10:29:23.425Z,0.65
2018-02-04T10:31:49.217Z,0.62
2018-02-04T10:34:14.999Z,0.65
2018-02-04T10:36:40.847Z,0.62
2018-02-04T10:39:06.612Z,0.64
2018-02-04T10:41:32.387Z,0.95
2018-02-04T10:43:58.161Z,0.82
2018-02-04T10:46:23.940Z,0.68
2018-02-04T10:48:49.927Z,0.70
2018-02-04T10:54:16.814Z,0.71
2018-02-04T10:56:42.598Z,0.81
2018-02-04T10:59:08.362Z,0.97
2018-02-04T11:01:34.526Z,0.93
2018-02-04T11:04:00.602Z,0.93
2018-02-04T11:06:26.394Z,1.18
2018-02-04T11:08:52.182Z,1.12
2018-02-04T11:11:17.973Z,1.16
2018-02-04T11:13:44.226Z,1.27
2018-02-04T11:16:10.057Z,1.40
2018-02-04T11:18:35.876Z,1.49
2018-02-04T11:21:01.620Z,1.51
2018-02-04T11:23:34.574Z,1.38
2018-02-04T11:26:00.539Z,1.72
2018-02-04T11:28:26.330Z,1.63
2018-02-04T11:30:52.125Z,1.45
2018-02-04T11:33:17.893Z,1.48
2018-02-04T11:35:43.675Z,1.53
2018-02-04T11:38:09.785Z,1.53
2018-02-04T11:40:35.730Z,1.64
2018-02-04T11:43:01.501Z,1.66
2018-02-04T11:45:27.294Z,1.61
2018-02-04T11:47:53.072Z,1.54
2018-02-04T11:50:18.871Z,1.43
2018-02-04T11:52:44.694Z,1.65
2018-02-04T11:55:10.485Z,1.65
2018-02-04T11:57:36.647Z,1.62
2018-02-04T12:00:04.320Z,1.70
2018-02-04T12:02:30.168Z,1.69
2018-02-04T12:04:55.971Z,1.68
2018-02-04T12:07:21.774Z,1.60
2018-02-04T12:09:47.550Z,1.65
2018-02-04T12:12:13.313Z,1.63
2018-02-04T12:14:39.136Z,1.70
2018-02-04T12:17:04.884Z,1.71
2018-02-04T12:19:31.024Z,1.66
2018-02-04T12:21:57.601Z,1.74
2018-02-04T12:24:23.390Z,1.76
2018-02-04T12:26:49.190Z,1.73
2018-02-04T12:29:14.970Z,1.75
2018-02-04T12:31:40.753Z,1.77
2018-02-04T12:34:06.545Z,1.72
2018-02-04T12:36:32.321Z,1.76
2018-02-04T12:38:59.025Z,1.86
2018-02-04T12:41:25.077Z,1.72
2018-02-04T12:43:50.870Z,1.84
2018-02-04T12:46:16.662Z,1.87
2018-02-04T12:48:42.460Z,1.76
2018-02-04T12:51:08.247Z,1.73
2018-02-04T12:53:34.369Z,1.66
2018-02-04T12:56:00.183Z,1.67
2018-02-04T12:58:26.424Z,1.67
2018-02-04T13:00:52.195Z,1.68
2018-02-04T13:03:18.326Z,1.80
2018-02-04T13:05:44.137Z,1.70
2018-02-04T13:08:09.918Z,1.70
2018-02-04T13:10:35.699Z,1.75
2018-02-04T13:13:01.831Z,1.67
2018-02-04T13:15:27.619Z,1.74
2018-02-04T13:17:53.469Z,1.82
2018-02-04T13:20:19.319Z,2.26
2018-02-04T13:22:45.218Z,2.17
2018-02-04T13:25:11.005Z,2.02
2018-02-04T13:27:36.782Z,2.11
2018-02-04T13:30:02.670Z,1.97
2018-02-04T13:32:29.100Z,2.16
2018-02-04T13:34:55.117Z,2.13
2018-02-04T13:37:20.911Z,2.15
2018-02-04T13:39:46.774Z,2.17
2018-02-04T13:42:12.565Z,2.25
2018-02-04T13:44:38.610Z,2.23
2018-02-04T13:47:04.375Z,2.02
2018-02-04T13:49:30.165Z,2.33
2018-02-04T13:51:56.462Z,2.26
2018-02-04T13:54:22.285Z,2.22
2018-02-04T13:56:48.407Z,2.05
2018-02-04T13:59:14.186Z,1.99
2018-02-04T14:01:39.953Z,1.89
2018-02-04T14:04:05.789Z,1.76
2018-02-04T14:06:31.633Z,1.73
2018-02-04T14:08:57.417Z,1.66
2018-02-04T14:11:23.227Z,1.70
2018-02-04T14:13:48.994Z,1.71
2018-02-04T14:16:14.781Z,1.69
2018-02-04T14:18:41.072Z,1.68
2018-02-04T14:21:06.850Z,1.70
2018-02-04T14:23:32.627Z,1.63
2018-02-04T14:25:58.877Z,1.73
2018-02-04T14:28:24.662Z,1.62
2018-02-04T14:30:50.433Z,1.56
2018-02-04T14:33:16.226Z,1.63
2018-02-04T14:35:42.329Z,1.62
2018-02-04T14:38:08.136Z,1.58
2018-02-04T14:40:34.834Z,2.01
2018-02-04T14:43:00.606Z,1.99
2018-02-04T14:45:26.517Z,1.97
2018-02-04T14:47:52.821Z,1.96
2018-02-04T14:50:18.602Z,2.42
2018-02-04T14:52:44.485Z,2.25
2018-02-04T14:55:10.253Z,1.92
2018-02-04T14:57:36.027Z,1.84
2018-02-04T15:00:01.867Z,1.82
2018-02-04T15:02:27.647Z,1.66
2018-02-04T15:04:53.422Z,1.70
2018-02-04T15:07:19.206Z,1.58
2018-02-04T15:09:44.981Z,1.82
2018-02-04T15:12:10.775Z,1.87
2018-02-04T15:14:36.549Z,1.93
2018-02-04T15:17:02.333Z,1.96
2018-02-04T15:19:28.129Z,1.92
2018-02-04T15:21:53.907Z,1.78
2018-02-04T15:24:19.690Z,1.68
2018-02-04T15:26:45.489Z,1.65
2018-02-04T15:29:11.263Z,1.58
2018-02-04T15:31:37.049Z,1.70
2018-02-04T15:34:02.881Z,1.63
2018-02-04T15:36:28.703Z,1.65
2018-02-04T15:38:54.481Z,1.51
2018-02-04T15:41:20.279Z,1.50
2018-02-04T15:43:46.055Z,1.49
2018-02-04T15:46:11.838Z,1.61
2018-02-04T15:48:37.689Z,1.58
2018-02-04T15:51:03.485Z,2.47
2018-02-04T15:53:29.269Z,1.82
2018-02-04T15:55:55.086Z,3.49
2018-02-04T15:58:20.886Z,2.31
2018-02-04T16:00:46.653Z,1.87
2018-02-04T16:03:12.429Z,1.76
2018-02-04T16:05:38.238Z,1.72
2018-02-04T16:08:04.024Z,3.09
2018-02-04T16:10:29.842Z,2.02
2018-02-04T16:12:55.650Z,1.84
2018-02-04T16:15:21.430Z,1.76
2018-02-04T16:17:47.203Z,1.76
2018-02-04T16:20:13.219Z,1.69
2018-02-04T16:22:38.998Z,1.73
2018-02-04T16:25:04.766Z,1.77
2018-02-04T16:27:30.561Z,1.81
2018-02-04T16:29:56.350Z,1.78
2018-02-04T16:32:22.162Z,1.70
2018-02-04T16:34:47.954Z,1.76
2018-02-04T16:37:13.742Z,2.29
2018-02-04T16:39:40.243Z,2.14
2018-02-04T16:42:06.045Z,1.83
2018-02-04T16:44:31.832Z,1.73
2018-02-04T16:46:57.666Z,1.63
2018-02-04T16:49:23.795Z,1.58
2018-02-04T16:51:49.582Z,1.52
2018-02-04T16:54:15.426Z,1.40
2018-02-04T16:56:41.241Z,1.42
2018-02-04T16:59:07.304Z,1.37
2018-02-04T17:01:33.133Z,1.41
2018-02-04T17:03:59.111Z,1.35
2018-02-04T17:06:25.085Z,1.45
2018-02-04T17:08:51.353Z,1.44
2018-02-04T17:11:17.153Z,1.42
2018-02-04T17:13:43.194Z,1.45
2018-02-04T17:16:09.103Z,1.57
2018-02-04T17:18:35.162Z,1.53
2018-02-04T17:21:01.111Z,1.46
2018-02-04T17:23:27.173Z,1.51
2018-02-04T17:25:53.015Z,1.65
2018-02-04T17:28:18.901Z,1.76
2018-02-04T17:30:44.755Z,1.69
2018-02-04T17:33:10.562Z,1.96
2018-02-04T17:35:36.341Z,1.75
2018-02-04T17:38:02.189Z,1.72
2018-02-04T17:40:27.998Z,1.81
2018-02-04T17:42:53.790Z,1.73
2018-02-04T17:45:20.174Z,1.70
2018-02-04T17:47:45.961Z,1.57
2018-02-04T17:50:12.385Z,1.69
2018-02-04T17:52:38.293Z,1.65
2018-02-04T17:55:04.405Z,1.95
2018-02-04T17:57:30.177Z,2.79
2018-02-04T17:59:56.023Z,2.60
2018-02-04T18:02:21.810Z,2.82
2018-02-04T18:04:47.858Z,2.83
2018-02-04T18:07:13.643Z,2.70
2018-02-04T18:09:39.834Z,2.24
2018-02-04T18:12:05.598Z,1.90
2018-02-04T18:14:31.428Z,1.83
2018-02-04T18:16:57.220Z,1.81
2018-02-04T18:19:23.005Z,1.87
2018-02-04T18:21:49.179Z,1.79
2018-02-04T18:24:14.972Z,1.81
2018-02-04T18:26:40.790Z,1.86
2018-02-04T18:29:06.565Z,1.72
2018-02-04T18:31:32.655Z,1.70
2018-02-04T18:33:58.451Z,1.75
2018-02-04T18:36:24.829Z,1.84
2018-02-04T18:38:50.901Z,1.87
2018-02-04T18:41:17.315Z,1.68
2018-02-04T18:43:43.128Z,1.64
2018-02-04T18:46:08.958Z,1.53
2018-02-04T18:48:34.757Z,1.53
2018-02-04T18:51:00.985Z,1.55
2018-02-04T18:53:26.800Z,1.75
2018-02-04T18:55:52.590Z,2.97
2018-02-04T18:58:18.831Z,2.93
2018-02-04T19:00:44.797Z,2.17
2018-02-04T19:03:10.631Z,1.98
2018-02-04T19:05:36.471Z,1.82
2018-02-04T19:08:02.287Z,1.66
2018-02-04T19:10:28.076Z,1.62
2018-02-04T19:12:53.871Z,1.64
2018-02-04T19:15:20.010Z,1.65
2018-02-04T19:17:45.794Z,1.61
2018-02-04T19:20:11.593Z,1.67
2018-02-04T19:22:37.538Z,1.55
2018-02-04T19:25:03.353Z,1.62
2018-02-04T19:27:29.400Z,1.59
2018-02-04T19:29:55.182Z,1.61
2018-02-04T19:32:21.041Z,1.58
2018-02-04T19:34:47.111Z,1.62
2018-02-04T19:37:12.895Z,3.33
2018-02-04T19:39:38.702Z,3.07
2018-02-04T19:42:04.563Z,3.24
2018-02-04T19:44:31.315Z,3.46
2018-02-04T19:46:57.156Z,2.44
2018-02-04T19:49:22.967Z,2.17
2018-02-04T19:51:48.754Z,1.90
2018-02-04T19:54:15.095Z,1.80
2018-02-04T19:56:40.862Z,1.65
2018-02-04T19:59:06.662Z,1.73
2018-02-04T20:01:32.675Z,1.77
2018-02-04T20:03:58.671Z,2.80
2018-02-04T20:06:24.556Z,2.33
2018-02-04T20:08:50.358Z,2.24
2018-02-04T20:11:16.482Z,1.82
2018-02-04T20:13:42.274Z,1.92
2018-02-04T20:16:08.073Z,1.86
2018-02-04T20:18:33.938Z,1.89
2018-02-04T20:21:00.249Z,1.81
2018-02-04T20:23:26.087Z,1.72
2018-02-04T20:25:51.868Z,1.70
2018-02-04T20:28:17.844Z,1.69
2018-02-04T20:30:43.655Z,1.73
2018-02-04T20:33:28.666Z,1.74
2018-02-04T20:35:54.472Z,2.33
2018-02-04T20:38:20.256Z,3.07
2018-02-04T20:40:53.091Z,2.15
2018-02-04T20:43:19.090Z,1.83
2018-02-04T20:45:44.871Z,1.78
2018-02-04T20:48:10.675Z,1.62
2018-02-04T20:50:36.842Z,1.60
2018-02-04T20:53:02.618Z,1.53
2018-02-04T20:55:28.970Z,1.65
2018-02-04T20:57:54.754Z,1.63
2018-02-04T21:00:20.774Z,1.55
2018-02-04T21:02:46.643Z,1.59
2018-02-04T21:05:12.590Z,1.56
2018-02-04T21:07:38.387Z,1.50
2018-02-04T21:10:04.387Z,1.59
2018-02-04T21:12:30.210Z,1.61
2018-02-04T21:14:56.451Z,1.59
2018-02-04T21:17:22.256Z,1.59
2018-02-04T21:19:48.022Z,1.69
2018-02-04T21:22:13.846Z,1.59
2018-02-04T21:24:39.654Z,1.68
2018-02-04T21:27:05.447Z,1.95
2018-02-04T21:29:31.263Z,1.73
2018-02-04T21:31:57.110Z,1.63
2018-02-04T21:34:22.910Z,1.51
2018-02-04T21:36:48.730Z,1.39
2018-02-04T21:39:15.746Z,1.55
2018-02-04T21:41:41.514Z,1.54
2018-02-04T21:44:07.406Z,1.58
2018-02-04T21:46:33.212Z,1.59
2018-02-04T21:48:59.267Z,1.52
2018-02-04T21:51:25.042Z,1.49
2018-02-04T21:53:50.862Z,1.64
2018-02-04T21:56:16.692Z,1.53
2018-02-04T21:58:42.513Z,1.36
2018-02-04T22:01:08.757Z,1.24
2018-02-04T22:03:34.591Z,1.37
2018-02-04T22:06:00.645Z,1.34
2018-02-04T22:08:26.658Z,1.26
2018-02-04T22:10:52.430Z,1.31
2018-02-04T22:13:18.241Z,1.34
2018-02-04T22:15:44.068Z,1.21
2018-02-04T22:18:10.329Z,1.25
2018-02-04T22:20:36.114Z,1.26
2018-02-04T22:23:02.506Z,1.18
2018-02-04T22:25:28.304Z,1.22
2018-02-04T22:27:54.643Z,1.21
2018-02-04T22:30:20.419Z,1.21
2018-02-04T22:32:46.622Z,1.21
2018-02-04T22:35:12.858Z,1.09
2018-02-04T22:37:38.982Z,1.24
2018-02-04T22:40:04.797Z,1.29
2018-02-04T22:42:30.698Z,1.28
2018-02-04T22:44:56.501Z,1.19
2018-02-04T22:47:22.287Z,1.21
2018-02-04T22:49:48.121Z,1.18
2018-02-04T22:52:13.914Z,1.25
2018-02-04T22:54:39.735Z,1.25
2018-02-04T22:57:05.713Z,1.29
2018-02-04T22:59:31.514Z,1.21
2018-02-04T23:01:57.484Z,1.73
2018-02-04T23:04:23.293Z,1.45
2018-02-04T23:06:49.437Z,1.45
2018-02-04T23:09:15.207Z,1.44
2018-02-04T23:11:41.313Z,1.36
2018-02-04T23:14:07.161Z,1.36
2018-02-04T23:16:32.966Z,1.44
2018-02-04T23:18:58.804Z,1.35
2018-02-04T23:21:24.587Z,1.24
2018-02-04T23:23:50.909Z,1.43
2018-02-04T23:26:16.705Z,1.31
2018-02-04T23:28:42.973Z,1.39
2018-02-04T23:31:08.746Z,1.40
2018-02-04T23:33:34.715Z,1.47
2018-02-04T23:36:00.549Z,1.29
2018-02-04T23:38:26.856Z,1.31
2018-02-04T23:40:52.958Z,1.27
2018-02-04T23:43:18.747Z,1.31
2018-02-04T23:45:44.537Z,1.34
2018-02-04T23:48:10.545Z,1.39
2018-02-04T23:50:36.995Z,1.23
2018-02-04T23:53:02.831Z,1.26
2018-02-04T23:55:29.136Z,1.18
2018-02-04T23:57:54.982Z,1.08
